sensor_id;sensor_type;location;lat;lon;timestamp;pressure;altitude;pressure_sealevel;temperature;humidity
52777;BME280;38656;54.260;20.822;2023-04-07T00:00:09;101321.72;;;15.57;77.49
52777;BME280;38656;54.260;20.822;2023-04-07T00:02:36;101313.50;;;16.50;73.93
52777;BME280;38656;54.260;20.822;2023-04-07T00:05:02;101310.72;;;16.41;73.64
52777;BME280;38656;54.260;20.822;2023-04-07T00:07:28;101315.97;;;15.83;76.24
52777;BME280;38656;54.260;20.822;2023-04-07T00:09:55;101315.59;;;15.76;77.32
52777;BME280;38656;54.260;20.822;2023-04-07T00:12:21;101311.91;;;15.98;78.25
52777;BME280;38656;54.260;20.822;2023-04-07T00:14:47;101313.09;;;15.13;82.68
52777;BME280;38656;54.260;20.822;2023-04-07T00:17:14;101306.31;;;15.61;79.59
52777;BME280;38656;54.260;20.822;2023-04-07T00:19:40;101307.75;;;15.74;80.48
52777;BME280;38656;54.260;20.822;2023-04-07T00:22:06;101302.13;;;16.28;78.68
52777;BME280;38656;54.260;20.822;2023-04-07T00:24:33;101306.59;;;15.57;79.49
52777;BME280;38656;54.260;20.822;2023-04-07T00:26:59;101306.94;;;15.74;79.90
52777;BME280;38656;54.260;20.822;2023-04-07T00:29:25;101300.69;;;15.54;80.16
52777;BME280;38656;54.260;20.822;2023-04-07T00:31:52;101298.75;;;16.06;79.74
52777;BME280;38656;54.260;20.822;2023-04-07T00:34:18;101297.72;;;15.88;79.38
52777;BME280;38656;54.260;20.822;2023-04-07T00:36:44;101288.13;;;16.45;74.33
52777;BME280;38656;54.260;20.822;2023-04-07T00:39:17;101290.22;;;16.22;77.71
52777;BME280;38656;54.260;20.822;2023-04-07T00:41:44;101287.47;;;15.43;78.75
52777;BME280;38656;54.260;20.822;2023-04-07T00:44:11;101292.44;;;15.26;81.73
52777;BME280;38656;54.260;20.822;2023-04-07T00:46:37;101282.06;;;16.04;79.46
52777;BME280;38656;54.260;20.822;2023-04-07T00:49:04;101295.25;;;16.16;79.59
52777;BME280;38656;54.260;20.822;2023-04-07T00:51:31;101288.13;;;16.26;78.12
52777;BME280;38656;54.260;20.822;2023-04-07T00:53:58;101293.22;;;15.38;81.38
52777;BME280;38656;54.260;20.822;2023-04-07T00:56:24;101284.88;;;16.61;76.94
52777;BME280;38656;54.260;20.822;2023-04-07T00:58:50;101286.00;;;16.20;76.40
52777;BME280;38656;54.260;20.822;2023-04-07T01:01:37;101275.88;;;16.53;76.98
52777;BME280;38656;54.260;20.822;2023-04-07T01:04:17;101269.22;;;15.69;80.56
52777;BME280;38656;54.260;20.822;2023-04-07T01:06:49;101276.44;;;16.76;76.31
52777;BME280;38656;54.260;20.822;2023-04-07T01:09:20;101266.34;;;16.40;78.06
52777;BME280;38656;54.260;20.822;2023-04-07T01:12:11;101268.31;;;16.28;76.25
52777;BME280;38656;54.260;20.822;2023-04-07T01:14:46;101275.78;;;15.24;84.48
52777;BME280;38656;54.260;20.822;2023-04-07T01:17:17;101272.16;;;15.75;82.05
52777;BME280;38656;54.260;20.822;2023-04-07T01:22:35;101269.75;;;16.23;79.78
52777;BME280;38656;54.260;20.822;2023-04-07T01:30:18;101263.00;;;16.38;74.66
52777;BME280;38656;54.260;20.822;2023-04-07T01:32:50;101275.41;;;15.38;81.53
52777;BME280;38656;54.260;20.822;2023-04-07T01:35:17;101255.75;;;17.35;75.07
52777;BME280;38656;54.260;20.822;2023-04-07T01:37:44;101260.41;;;16.86;76.77
52777;BME280;38656;54.260;20.822;2023-04-07T01:40:14;101258.66;;;16.47;76.64
52777;BME280;38656;54.260;20.822;2023-04-07T01:42:42;101254.28;;;16.46;73.75
52777;BME280;38656;54.260;20.822;2023-04-07T01:45:10;101257.31;;;17.00;73.96
52777;BME280;38656;54.260;20.822;2023-04-07T01:47:36;101255.97;;;16.57;74.57
52777;BME280;38656;54.260;20.822;2023-04-07T01:50:04;101253.84;;;16.70;76.29
52777;BME280;38656;54.260;20.822;2023-04-07T01:52:34;101249.75;;;16.76;75.91
52777;BME280;38656;54.260;20.822;2023-04-07T01:55:02;101252.41;;;17.33;72.72
52777;BME280;38656;54.260;20.822;2023-04-07T01:57:29;101252.94;;;17.09;72.34
52777;BME280;38656;54.260;20.822;2023-04-07T01:59:55;101253.19;;;16.29;77.26
52777;BME280;38656;54.260;20.822;2023-04-07T02:02:21;101252.34;;;16.38;77.28
52777;BME280;38656;54.260;20.822;2023-04-07T02:04:55;101248.28;;;17.01;74.58
52777;BME280;38656;54.260;20.822;2023-04-07T02:10:00;101241.53;;;17.16;71.13
52777;BME280;38656;54.260;20.822;2023-04-07T02:12:29;101253.75;;;16.23;74.23
52777;BME280;38656;54.260;20.822;2023-04-07T02:14:57;101247.91;;;16.96;75.04
52777;BME280;38656;54.260;20.822;2023-04-07T02:17:26;101248.81;;;17.14;71.34
52777;BME280;38656;54.260;20.822;2023-04-07T02:19:53;101250.09;;;16.24;75.97
52777;BME280;38656;54.260;20.822;2023-04-07T02:22:21;101250.88;;;16.83;76.18
52777;BME280;38656;54.260;20.822;2023-04-07T02:24:47;101250.38;;;16.40;75.24
52777;BME280;38656;54.260;20.822;2023-04-07T02:27:13;101246.94;;;16.97;73.65
52777;BME280;38656;54.260;20.822;2023-04-07T02:29:40;101239.06;;;16.95;73.41
52777;BME280;38656;54.260;20.822;2023-04-07T02:32:06;101250.88;;;16.93;73.16
52777;BME280;38656;54.260;20.822;2023-04-07T02:34:32;101251.50;;;16.08;76.92
52777;BME280;38656;54.260;20.822;2023-04-07T02:36:58;101245.13;;;16.78;74.61
52777;BME280;38656;54.260;20.822;2023-04-07T02:39:25;101244.13;;;16.89;75.04
52777;BME280;38656;54.260;20.822;2023-04-07T02:41:51;101239.81;;;17.15;72.75
52777;BME280;38656;54.260;20.822;2023-04-07T02:44:17;101243.44;;;17.24;72.73
52777;BME280;38656;54.260;20.822;2023-04-07T02:46:43;101236.63;;;16.25;75.53
52777;BME280;38656;54.260;20.822;2023-04-07T02:49:10;101226.69;;;17.04;75.06
52777;BME280;38656;54.260;20.822;2023-04-07T02:51:36;101226.78;;;16.65;75.39
52777;BME280;38656;54.260;20.822;2023-04-07T02:54:02;101231.53;;;17.19;72.88
52777;BME280;38656;54.260;20.822;2023-04-07T02:56:28;101231.13;;;17.13;72.54
52777;BME280;38656;54.260;20.822;2023-04-07T02:58:54;101224.00;;;16.47;73.98
52777;BME280;38656;54.260;20.822;2023-04-07T03:01:20;101230.91;;;16.97;75.34
52777;BME280;38656;54.260;20.822;2023-04-07T03:03:47;101235.84;;;15.74;76.79
52777;BME280;38656;54.260;20.822;2023-04-07T03:06:13;101230.84;;;17.16;73.25
52777;BME280;38656;54.260;20.822;2023-04-07T03:08:39;101237.47;;;16.45;75.15
52777;BME280;38656;54.260;20.822;2023-04-07T03:11:07;101232.78;;;17.98;70.65
52777;BME280;38656;54.260;20.822;2023-04-07T03:13:33;101235.78;;;17.85;68.17
52777;BME280;38656;54.260;20.822;2023-04-07T03:15:59;101231.88;;;16.29;75.38
52777;BME280;38656;54.260;20.822;2023-04-07T03:18:25;101235.97;;;17.00;73.84
52777;BME280;38656;54.260;20.822;2023-04-07T03:20:51;101239.50;;;17.28;72.70
52777;BME280;38656;54.260;20.822;2023-04-07T03:23:20;101233.69;;;17.05;72.82
52777;BME280;38656;54.260;20.822;2023-04-07T03:25:46;101246.19;;;17.05;72.51
52777;BME280;38656;54.260;20.822;2023-04-07T03:28:12;101254.91;;;17.90;69.01
52777;BME280;38656;54.260;20.822;2023-04-07T03:30:38;101244.41;;;17.33;71.79
52777;BME280;38656;54.260;20.822;2023-04-07T03:33:04;101245.06;;;17.63;69.27
52777;BME280;38656;54.260;20.822;2023-04-07T03:35:31;101240.72;;;17.06;71.75
52777;BME280;38656;54.260;20.822;2023-04-07T03:37:57;101236.53;;;18.05;68.42
52777;BME280;38656;54.260;20.822;2023-04-07T03:40:23;101234.91;;;16.63;71.20
52777;BME280;38656;54.260;20.822;2023-04-07T03:42:50;101232.13;;;17.40;73.33
52777;BME280;38656;54.260;20.822;2023-04-07T03:45:16;101239.72;;;18.27;67.67
52777;BME280;38656;54.260;20.822;2023-04-07T03:47:43;101239.09;;;16.76;72.69
52777;BME280;38656;54.260;20.822;2023-04-07T03:50:09;101244.72;;;16.73;74.21
52777;BME280;38656;54.260;20.822;2023-04-07T03:52:36;101246.97;;;15.80;78.08
52777;BME280;38656;54.260;20.822;2023-04-07T03:55:02;101241.03;;;16.84;74.65
52777;BME280;38656;54.260;20.822;2023-04-07T03:57:28;101244.38;;;16.86;73.10
52777;BME280;38656;54.260;20.822;2023-04-07T03:59:54;101256.78;;;16.87;72.80
52777;BME280;38656;54.260;20.822;2023-04-07T04:02:21;101255.88;;;17.43;70.35
52777;BME280;38656;54.260;20.822;2023-04-07T04:04:47;101262.28;;;17.23;71.26
52777;BME280;38656;54.260;20.822;2023-04-07T04:07:13;101260.69;;;17.85;68.56
52777;BME280;38656;54.260;20.822;2023-04-07T04:09:39;101265.16;;;17.67;68.44
52777;BME280;38656;54.260;20.822;2023-04-07T04:12:06;101269.91;;;19.07;64.01
52777;BME280;38656;54.260;20.822;2023-04-07T04:14:32;101264.47;;;18.91;62.73
52777;BME280;38656;54.260;20.822;2023-04-07T04:16:59;101266.41;;;18.63;64.92
52777;BME280;38656;54.260;20.822;2023-04-07T04:19:25;101268.03;;;17.56;66.61
52777;BME280;38656;54.260;20.822;2023-04-07T04:21:51;101271.34;;;17.02;69.46
52777;BME280;38656;54.260;20.822;2023-04-07T04:24:17;101265.34;;;17.28;69.81
52777;BME280;38656;54.260;20.822;2023-04-07T04:26:44;101261.72;;;16.62;71.67
52777;BME280;38656;54.260;20.822;2023-04-07T04:29:10;101254.47;;;17.67;68.58
52777;BME280;38656;54.260;20.822;2023-04-07T04:31:36;101257.06;;;16.64;70.77
52777;BME280;38656;54.260;20.822;2023-04-07T04:34:02;101257.88;;;16.84;70.84
52777;BME280;38656;54.260;20.822;2023-04-07T04:36:28;101259.19;;;15.42;77.09
52777;BME280;38656;54.260;20.822;2023-04-07T04:38:54;101257.63;;;16.77;73.78
52777;BME280;38656;54.260;20.822;2023-04-07T04:41:21;101252.75;;;16.53;73.89
52777;BME280;38656;54.260;20.822;2023-04-07T04:43:47;101262.13;;;16.87;73.92
52777;BME280;38656;54.260;20.822;2023-04-07T04:46:13;101265.09;;;17.21;70.23
52777;BME280;38656;54.260;20.822;2023-04-07T04:48:39;101270.25;;;17.60;68.27
52777;BME280;38656;54.260;20.822;2023-04-07T04:51:06;101270.69;;;17.28;69.51
52777;BME280;38656;54.260;20.822;2023-04-07T04:53:33;101263.09;;;17.33;69.52
52777;BME280;38656;54.260;20.822;2023-04-07T04:55:59;101266.84;;;17.68;67.91
52777;BME280;38656;54.260;20.822;2023-04-07T04:58:25;101271.09;;;16.76;70.40
52777;BME280;38656;54.260;20.822;2023-04-07T05:00:55;101275.69;;;17.41;69.93
52777;BME280;38656;54.260;20.822;2023-04-07T05:03:27;101277.31;;;17.51;68.81
52777;BME280;38656;54.260;20.822;2023-04-07T05:05:53;101284.38;;;17.43;69.64
52777;BME280;38656;54.260;20.822;2023-04-07T05:08:19;101284.63;;;17.77;66.82
52777;BME280;38656;54.260;20.822;2023-04-07T05:10:46;101274.66;;;17.24;68.76
52777;BME280;38656;54.260;20.822;2023-04-07T05:13:12;101277.00;;;16.60;72.04
52777;BME280;38656;54.260;20.822;2023-04-07T05:15:40;101273.91;;;17.31;68.84
52777;BME280;38656;54.260;20.822;2023-04-07T05:18:07;101270.69;;;17.56;69.09
52777;BME280;38656;54.260;20.822;2023-04-07T05:20:33;101279.78;;;17.63;67.60
52777;BME280;38656;54.260;20.822;2023-04-07T05:22:59;101281.25;;;18.03;66.27
52777;BME280;38656;54.260;20.822;2023-04-07T05:25:25;101279.50;;;17.94;66.01
52777;BME280;38656;54.260;20.822;2023-04-07T05:27:52;101289.63;;;17.34;67.33
52777;BME280;38656;54.260;20.822;2023-04-07T05:30:18;101280.34;;;17.66;67.92
52777;BME280;38656;54.260;20.822;2023-04-07T05:32:44;101280.47;;;17.37;69.74
52777;BME280;38656;54.260;20.822;2023-04-07T05:35:10;101284.69;;;18.93;64.37
52777;BME280;38656;54.260;20.822;2023-04-07T05:37:37;101287.03;;;17.52;66.41
52777;BME280;38656;54.260;20.822;2023-04-07T05:40:04;101285.31;;;17.24;69.40
52777;BME280;38656;54.260;20.822;2023-04-07T05:42:31;101281.22;;;17.29;68.56
52777;BME280;38656;54.260;20.822;2023-04-07T05:44:57;101275.53;;;17.05;69.55
52777;BME280;38656;54.260;20.822;2023-04-07T05:47:24;101273.56;;;17.72;69.21
52777;BME280;38656;54.260;20.822;2023-04-07T05:49:50;101276.53;;;17.97;65.76
52777;BME280;38656;54.260;20.822;2023-04-07T05:52:16;101272.16;;;17.96;66.80
52777;BME280;38656;54.260;20.822;2023-04-07T05:54:42;101267.66;;;18.50;64.28
52777;BME280;38656;54.260;20.822;2023-04-07T05:57:09;101261.19;;;19.40;62.16
52777;BME280;38656;54.260;20.822;2023-04-07T05:59:35;101262.81;;;19.33;60.77
52777;BME280;38656;54.260;20.822;2023-04-07T06:02:03;101271.88;;;19.32;60.79
52777;BME280;38656;54.260;20.822;2023-04-07T06:04:29;101273.28;;;19.52;60.61
52777;BME280;38656;54.260;20.822;2023-04-07T06:06:56;101268.09;;;20.18;58.62
52777;BME280;38656;54.260;20.822;2023-04-07T06:09:23;101265.34;;;19.77;58.03
52777;BME280;38656;54.260;20.822;2023-04-07T06:11:49;101265.47;;;19.67;58.23
52777;BME280;38656;54.260;20.822;2023-04-07T06:14:17;101272.63;;;20.18;58.01
52777;BME280;38656;54.260;20.822;2023-04-07T06:16:43;101267.38;;;19.91;57.88
52777;BME280;38656;54.260;20.822;2023-04-07T06:19:10;101266.75;;;19.12;59.06
52777;BME280;38656;54.260;20.822;2023-04-07T06:21:36;101263.53;;;19.43;59.23
52777;BME280;38656;54.260;20.822;2023-04-07T06:24:03;101268.72;;;19.79;58.37
52777;BME280;38656;54.260;20.822;2023-04-07T06:26:29;101258.03;;;20.12;58.04
52777;BME280;38656;54.260;20.822;2023-04-07T06:28:57;101265.53;;;19.41;59.51
52777;BME280;38656;54.260;20.822;2023-04-07T06:31:24;101262.41;;;19.19;60.22
52777;BME280;38656;54.260;20.822;2023-04-07T06:33:51;101264.75;;;20.16;57.38
52777;BME280;38656;54.260;20.822;2023-04-07T06:36:17;101270.38;;;19.37;59.10
52777;BME280;38656;54.260;20.822;2023-04-07T06:38:43;101256.94;;;19.72;59.04
52777;BME280;38656;54.260;20.822;2023-04-07T06:41:10;101253.75;;;19.76;58.24
52777;BME280;38656;54.260;20.822;2023-04-07T06:43:46;101251.78;;;19.78;58.63
52777;BME280;38656;54.260;20.822;2023-04-07T06:46:12;101246.28;;;19.88;59.43
52777;BME280;38656;54.260;20.822;2023-04-07T06:48:39;101244.13;;;19.49;60.09
52777;BME280;38656;54.260;20.822;2023-04-07T06:51:05;101251.69;;;20.38;58.06
52777;BME280;38656;54.260;20.822;2023-04-07T06:53:32;101249.34;;;20.34;57.87
52777;BME280;38656;54.260;20.822;2023-04-07T06:56:09;101255.47;;;21.09;55.19
52777;BME280;38656;54.260;20.822;2023-04-07T06:58:37;101255.66;;;21.39;54.24
52777;BME280;38656;54.260;20.822;2023-04-07T07:01:04;101250.94;;;19.78;56.40
52777;BME280;38656;54.260;20.822;2023-04-07T07:03:31;101245.13;;;20.57;55.36
52777;BME280;38656;54.260;20.822;2023-04-07T07:05:58;101244.81;;;20.43;55.89
52777;BME280;38656;54.260;20.822;2023-04-07T07:08:26;101244.25;;;20.89;55.16
52777;BME280;38656;54.260;20.822;2023-04-07T07:10:53;101248.41;;;21.56;53.22
52777;BME280;38656;54.260;20.822;2023-04-07T07:13:21;101248.47;;;21.39;53.35
52777;BME280;38656;54.260;20.822;2023-04-07T07:15:49;101253.66;;;22.27;52.75
52777;BME280;38656;54.260;20.822;2023-04-07T07:18:16;101246.84;;;21.93;52.75
52777;BME280;38656;54.260;20.822;2023-04-07T07:20:43;101259.09;;;21.25;52.87
52777;BME280;38656;54.260;20.822;2023-04-07T07:23:09;101261.34;;;21.52;51.92
52777;BME280;38656;54.260;20.822;2023-04-07T07:25:36;101263.09;;;22.23;51.22
52777;BME280;38656;54.260;20.822;2023-04-07T07:28:02;101258.09;;;22.96;50.52
52777;BME280;38656;54.260;20.822;2023-04-07T07:30:29;101247.81;;;22.47;49.91
52777;BME280;38656;54.260;20.822;2023-04-07T07:32:55;101251.75;;;21.58;51.04
52777;BME280;38656;54.260;20.822;2023-04-07T07:35:23;101256.13;;;22.14;50.65
52777;BME280;38656;54.260;20.822;2023-04-07T07:37:50;101252.63;;;23.19;48.71
52777;BME280;38656;54.260;20.822;2023-04-07T07:40:17;101262.09;;;23.30;49.03
52777;BME280;38656;54.260;20.822;2023-04-07T07:42:45;101249.81;;;22.97;48.53
52777;BME280;38656;54.260;20.822;2023-04-07T07:45:12;101252.34;;;22.00;49.20
52777;BME280;38656;54.260;20.822;2023-04-07T07:47:39;101252.13;;;23.45;49.89
52777;BME280;38656;54.260;20.822;2023-04-07T07:50:06;101259.66;;;24.30;45.67
52777;BME280;38656;54.260;20.822;2023-04-07T07:52:32;101260.19;;;25.93;42.57
52777;BME280;38656;54.260;20.822;2023-04-07T07:54:59;101269.19;;;25.39;42.96
52777;BME280;38656;54.260;20.822;2023-04-07T07:57:25;101260.34;;;25.23;42.36
52777;BME280;38656;54.260;20.822;2023-04-07T07:59:51;101250.66;;;26.78;40.45
52777;BME280;38656;54.260;20.822;2023-04-07T08:02:18;101253.91;;;24.89;42.98
52777;BME280;38656;54.260;20.822;2023-04-07T08:04:44;101255.47;;;26.62;40.68
52777;BME280;38656;54.260;20.822;2023-04-07T08:07:11;101256.34;;;25.54;40.83
52777;BME280;38656;54.260;20.822;2023-04-07T08:09:37;101257.31;;;25.05;42.31
52777;BME280;38656;54.260;20.822;2023-04-07T08:12:04;101254.16;;;24.16;42.74
52777;BME280;38656;54.260;20.822;2023-04-07T08:14:30;101258.00;;;23.19;45.31
52777;BME280;38656;54.260;20.822;2023-04-07T08:16:56;101267.03;;;23.78;44.86
52777;BME280;38656;54.260;20.822;2023-04-07T08:19:22;101265.44;;;24.27;44.62
52777;BME280;38656;54.260;20.822;2023-04-07T08:21:49;101273.91;;;23.80;44.93
52777;BME280;38656;54.260;20.822;2023-04-07T08:24:15;101270.81;;;23.83;44.36
52777;BME280;38656;54.260;20.822;2023-04-07T08:26:42;101271.56;;;24.14;44.81
52777;BME280;38656;54.260;20.822;2023-04-07T08:29:08;101277.09;;;22.41;47.45
52777;BME280;38656;54.260;20.822;2023-04-07T08:31:34;101281.72;;;23.75;45.83
52777;BME280;38656;54.260;20.822;2023-04-07T08:34:00;101266.44;;;24.41;44.99
52777;BME280;38656;54.260;20.822;2023-04-07T08:36:27;101270.00;;;25.33;43.81
52777;BME280;38656;54.260;20.822;2023-04-07T08:38:54;101278.00;;;24.84;43.95
52777;BME280;38656;54.260;20.822;2023-04-07T08:41:35;101274.34;;;23.99;45.67
52777;BME280;38656;54.260;20.822;2023-04-07T08:44:03;101284.38;;;23.54;45.88
52777;BME280;38656;54.260;20.822;2023-04-07T08:46:30;101277.69;;;25.01;43.85
52777;BME280;38656;54.260;20.822;2023-04-07T08:48:57;101268.38;;;25.52;43.56
52777;BME280;38656;54.260;20.822;2023-04-07T08:51:32;101269.63;;;24.79;43.35
52777;BME280;38656;54.260;20.822;2023-04-07T08:54:12;101271.88;;;25.39;42.67
52777;BME280;38656;54.260;20.822;2023-04-07T08:56:40;101261.41;;;25.77;41.55
52777;BME280;38656;54.260;20.822;2023-04-07T08:59:09;101272.50;;;24.71;43.04
52777;BME280;38656;54.260;20.822;2023-04-07T09:01:36;101268.84;;;25.55;42.99
52777;BME280;38656;54.260;20.822;2023-04-07T09:04:06;101248.41;;;26.21;41.89
52777;BME280;38656;54.260;20.822;2023-04-07T09:06:33;101251.56;;;24.51;45.28
52777;BME280;38656;54.260;20.822;2023-04-07T09:09:01;101240.25;;;26.75;42.72
52777;BME280;38656;54.260;20.822;2023-04-07T09:11:28;101246.72;;;27.46;41.43
52777;BME280;38656;54.260;20.822;2023-04-07T09:13:55;101247.13;;;27.49;39.56
52777;BME280;38656;54.260;20.822;2023-04-07T09:16:22;101241.13;;;28.36;39.03
52777;BME280;38656;54.260;20.822;2023-04-07T09:18:49;101241.34;;;28.60;38.05
52777;BME280;38656;54.260;20.822;2023-04-07T09:21:15;101249.09;;;28.82;37.35
52777;BME280;38656;54.260;20.822;2023-04-07T09:23:42;101242.56;;;29.57;37.53
52777;BME280;38656;54.260;20.822;2023-04-07T09:26:22;101245.28;;;29.57;36.37
52777;BME280;38656;54.260;20.822;2023-04-07T09:28:52;101242.78;;;30.87;34.66
52777;BME280;38656;54.260;20.822;2023-04-07T09:31:19;101250.16;;;30.75;33.56
52777;BME280;38656;54.260;20.822;2023-04-07T09:33:47;101249.09;;;30.64;33.23
52777;BME280;38656;54.260;20.822;2023-04-07T09:36:13;101249.41;;;31.55;34.29
52777;BME280;38656;54.260;20.822;2023-04-07T09:38:42;101245.69;;;32.24;33.60
52777;BME280;38656;54.260;20.822;2023-04-07T09:43:38;101252.41;;;31.42;32.96
52777;BME280;38656;54.260;20.822;2023-04-07T09:46:10;101248.22;;;30.28;33.79
52777;BME280;38656;54.260;20.822;2023-04-07T09:48:37;101240.88;;;31.40;33.03
52777;BME280;38656;54.260;20.822;2023-04-07T09:51:06;101237.56;;;30.14;34.35
52777;BME280;38656;54.260;20.822;2023-04-07T09:53:50;101240.47;;;31.19;33.15
52777;BME280;38656;54.260;20.822;2023-04-07T09:56:20;101244.56;;;30.58;33.40
52777;BME280;38656;54.260;20.822;2023-04-07T09:58:48;101248.31;;;32.53;32.34
52777;BME280;38656;54.260;20.822;2023-04-07T10:01:17;101247.09;;;31.64;32.31
52777;BME280;38656;54.260;20.822;2023-04-07T10:03:44;101239.50;;;32.12;32.28
52777;BME280;38656;54.260;20.822;2023-04-07T10:06:12;101246.19;;;32.21;31.39
52777;BME280;38656;54.260;20.822;2023-04-07T10:08:41;101248.31;;;30.09;33.30
52777;BME280;38656;54.260;20.822;2023-04-07T10:11:08;101252.84;;;30.39;32.65
52777;BME280;38656;54.260;20.822;2023-04-07T10:13:36;101244.00;;;31.89;32.01
52777;BME280;38656;54.260;20.822;2023-04-07T10:16:06;101238.59;;;32.23;32.31
52777;BME280;38656;54.260;20.822;2023-04-07T10:18:33;101236.94;;;32.22;31.59
52777;BME280;38656;54.260;20.822;2023-04-07T10:21:06;101238.88;;;31.06;32.94
52777;BME280;38656;54.260;20.822;2023-04-07T10:24:06;101233.63;;;30.10;33.11
52777;BME280;38656;54.260;20.822;2023-04-07T10:26:37;101235.75;;;30.08;33.78
52777;BME280;38656;54.260;20.822;2023-04-07T10:29:09;101241.03;;;29.61;34.10
52777;BME280;38656;54.260;20.822;2023-04-07T10:31:37;101227.91;;;31.18;33.13
52777;BME280;38656;54.260;20.822;2023-04-07T10:34:04;101230.41;;;31.77;32.50
52777;BME280;38656;54.260;20.822;2023-04-07T10:36:30;101225.34;;;31.00;33.27
52777;BME280;38656;54.260;20.822;2023-04-07T10:41:40;101229.63;;;29.52;33.53
52777;BME280;38656;54.260;20.822;2023-04-07T10:44:44;101225.34;;;30.29;33.17
52777;BME280;38656;54.260;20.822;2023-04-07T10:47:02;101232.56;;;30.11;32.77
52777;BME280;38656;54.260;20.822;2023-04-07T10:49:30;101233.75;;;30.15;33.57
52777;BME280;38656;54.260;20.822;2023-04-07T10:54:41;101232.13;;;30.50;33.08
52777;BME280;38656;54.260;20.822;2023-04-07T10:57:08;101229.69;;;31.24;32.45
52777;BME280;38656;54.260;20.822;2023-04-07T10:59:37;101230.38;;;30.56;33.12
52777;BME280;38656;54.260;20.822;2023-04-07T11:04:43;101228.97;;;31.17;33.01
52777;BME280;38656;54.260;20.822;2023-04-07T11:07:13;101228.88;;;31.12;31.81
52777;BME280;38656;54.260;20.822;2023-04-07T11:09:41;101222.84;;;31.39;31.90
52777;BME280;38656;54.260;20.822;2023-04-07T11:12:07;101229.03;;;32.26;31.59
52777;BME280;38656;54.260;20.822;2023-04-07T11:14:34;101220.34;;;33.29;30.73
52777;BME280;38656;54.260;20.822;2023-04-07T11:17:05;101225.84;;;33.84;29.61
52777;BME280;38656;54.260;20.822;2023-04-07T11:19:52;101217.00;;;33.22;29.67
52777;BME280;38656;54.260;20.822;2023-04-07T11:22:19;101215.91;;;33.73;29.74
52777;BME280;38656;54.260;20.822;2023-04-07T11:24:46;101207.56;;;33.62;30.28
52777;BME280;38656;54.260;20.822;2023-04-07T11:27:13;101207.47;;;33.57;30.08
52777;BME280;38656;54.260;20.822;2023-04-07T11:29:40;101199.56;;;34.68;30.00
52777;BME280;38656;54.260;20.822;2023-04-07T11:32:08;101206.06;;;33.77;29.10
52777;BME280;38656;54.260;20.822;2023-04-07T11:34:35;101204.53;;;31.51;30.80
52777;BME280;38656;54.260;20.822;2023-04-07T11:37:24;101211.16;;;31.84;31.15
52777;BME280;38656;54.260;20.822;2023-04-07T11:39:54;101203.28;;;32.05;30.63
52777;BME280;38656;54.260;20.822;2023-04-07T11:42:37;101203.09;;;33.07;29.38
52777;BME280;38656;54.260;20.822;2023-04-07T11:45:17;101194.13;;;33.93;29.46
52777;BME280;38656;54.260;20.822;2023-04-07T11:47:47;101199.16;;;34.97;28.57
52777;BME280;38656;54.260;20.822;2023-04-07T11:50:14;101193.75;;;33.25;29.59
52777;BME280;38656;54.260;20.822;2023-04-07T11:52:46;101196.50;;;33.25;30.02
52777;BME280;38656;54.260;20.822;2023-04-07T11:55:21;101192.53;;;30.71;31.55
52777;BME280;38656;54.260;20.822;2023-04-07T11:57:49;101182.81;;;30.63;32.50
52777;BME280;38656;54.260;20.822;2023-04-07T12:00:17;101196.66;;;29.60;33.84
52777;BME280;38656;54.260;20.822;2023-04-07T12:02:44;101185.84;;;29.54;34.06
52777;BME280;38656;54.260;20.822;2023-04-07T12:05:11;101190.56;;;28.60;34.32
52777;BME280;38656;54.260;20.822;2023-04-07T12:07:38;101197.59;;;28.87;35.10
52777;BME280;38656;54.260;20.822;2023-04-07T12:10:20;101202.56;;;28.90;34.82
52777;BME280;38656;54.260;20.822;2023-04-07T12:12:47;101196.34;;;29.20;34.61
52777;BME280;38656;54.260;20.822;2023-04-07T12:15:14;101196.66;;;30.38;33.18
52777;BME280;38656;54.260;20.822;2023-04-07T12:17:46;101197.69;;;31.37;32.95
52777;BME280;38656;54.260;20.822;2023-04-07T12:20:13;101197.31;;;30.52;33.54
52777;BME280;38656;54.260;20.822;2023-04-07T12:22:40;101198.75;;;29.46;34.68
52777;BME280;38656;54.260;20.822;2023-04-07T12:25:07;101191.84;;;29.74;34.59
52777;BME280;38656;54.260;20.822;2023-04-07T12:27:33;101186.34;;;29.93;34.18
52777;BME280;38656;54.260;20.822;2023-04-07T12:30:00;101185.53;;;30.04;33.94
52777;BME280;38656;54.260;20.822;2023-04-07T12:32:26;101192.41;;;29.34;35.44
52777;BME280;38656;54.260;20.822;2023-04-07T12:34:53;101189.31;;;28.38;35.30
52777;BME280;38656;54.260;20.822;2023-04-07T12:37:20;101188.56;;;29.54;34.69
52777;BME280;38656;54.260;20.822;2023-04-07T12:39:46;101191.91;;;29.98;34.10
52777;BME280;38656;54.260;20.822;2023-04-07T12:42:12;101189.59;;;30.61;33.89
52777;BME280;38656;54.260;20.822;2023-04-07T12:44:39;101193.84;;;31.96;31.58
52777;BME280;38656;54.260;20.822;2023-04-07T12:47:05;101188.59;;;32.84;31.59
52777;BME280;38656;54.260;20.822;2023-04-07T12:49:32;101192.63;;;32.59;31.14
52777;BME280;38656;54.260;20.822;2023-04-07T12:51:58;101187.44;;;30.04;33.67
52777;BME280;38656;54.260;20.822;2023-04-07T12:54:24;101189.34;;;30.27;33.47
52777;BME280;38656;54.260;20.822;2023-04-07T12:56:51;101192.22;;;31.08;33.16
52777;BME280;38656;54.260;20.822;2023-04-07T12:59:17;101192.28;;;30.01;34.50
52777;BME280;38656;54.260;20.822;2023-04-07T13:01:44;101190.00;;;29.56;34.80
52777;BME280;38656;54.260;20.822;2023-04-07T13:04:10;101197.13;;;29.27;35.94